Terminal Aerodrome Forecast
Issued by NWS

Home | Current Version | Previous Version | Text Only | Print | Product List | Glossary On
Versions: 1 2 3 4 5 6 7 8 9 10 11 12 13 14 15 16 17 18
472
FTUS46 KPDT 240529
TAFDLS
TAF
KDLS 240529Z 2406/2506 VRB05KT P6SM -RA SCT005 BKN012 OVC060
      TEMPO 2406/2410 5SM -RA BR BKN005 OVC012
     FM241800 VRB05KT P6SM VCSH SCT010 OVC050
     FM242200 31009KT P6SM VCSH BKN050=

USA.gov is the U.S. government's official web portal to all federal, state and local government web resources and services.